Lindentree, Ohio
Current Conditions -  °F | °C
As of 11:53 AM on Friday 19 Dec 2014 (Local Time) from KPHD Reporting Station
Haze Haze  
Wind Chill: 25°   Ceiling: 1400
Heat Index: 31°   Visibility: 5mi
Dew Point: 26°   Wind: 6mph
Humidity: 82%   Direction: 270°W
Pressure: 30.24"   Gusts: NA
Location:  40.5975°N, 81.3327°W
Report Text: KPHD 191653Z AUTO 27005KT 5SM HZ OVC014 M01/M03 A3024 RMK AO2 SLP252 T10061033
Loading
Personal Weather Stations






























Interactive Weather Map New forecast layout! Learn more

10-Day Weather Forecast

Advertisements
Track Severe Weather on mobile